createdAt,value
2023-04-27T00:01:13.749Z,1.25
2023-04-27T00:04:16.713Z,1.13
2023-04-27T00:07:18.456Z,2.00
2023-04-27T00:13:21.410Z,1.40
2023-04-27T00:19:24.674Z,1.50
2023-04-27T00:22:26.465Z,1.40
2023-04-27T00:25:28.095Z,1.40
2023-04-27T00:28:29.702Z,1.15
2023-04-27T00:31:31.265Z,1.35
2023-04-27T00:34:32.839Z,1.10
2023-04-27T00:37:34.365Z,1.60
2023-04-27T00:40:36.039Z,1.40
2023-04-27T00:43:45.696Z,1.60
2023-04-27T00:46:47.393Z,1.88
2023-04-27T00:49:49.539Z,1.90
2023-04-27T00:52:51.193Z,1.77
2023-04-27T00:55:52.755Z,1.55
2023-04-27T01:01:56.389Z,1.70
2023-04-27T01:04:58.283Z,1.80
2023-04-27T01:07:59.864Z,1.90
2023-04-27T01:14:06.987Z,1.60
2023-04-27T01:17:08.620Z,1.77
2023-04-27T01:20:10.798Z,2.10
2023-04-27T01:23:17.337Z,2.10
2023-04-27T01:26:19.206Z,1.55
2023-04-27T01:32:23.054Z,1.33
2023-04-27T01:35:25.703Z,2.03
2023-04-27T01:38:29.334Z,1.65
2023-04-27T01:41:31.440Z,2.55
2023-04-27T01:44:33.289Z,2.40
2023-04-27T01:47:34.946Z,2.20
2023-04-27T01:50:36.540Z,1.85
2023-04-27T01:56:39.546Z,1.60
2023-04-27T01:59:41.108Z,1.70
2023-04-27T02:05:44.515Z,1.55
2023-04-27T02:08:46.179Z,1.63
2023-04-27T02:11:47.743Z,2.65
2023-04-27T02:17:50.814Z,1.80
2023-04-27T02:20:52.670Z,2.00
2023-04-27T02:23:54.229Z,1.65
2023-04-27T02:29:57.313Z,1.67
2023-04-27T02:33:00.891Z,1.92
2023-04-27T02:36:02.524Z,2.03
2023-04-27T02:42:05.653Z,2.10
2023-04-27T02:45:08.155Z,2.05
2023-04-27T02:48:09.799Z,2.13
2023-04-27T02:51:11.437Z,1.70
2023-04-27T02:57:14.490Z,2.03
2023-04-27T03:03:17.841Z,2.42
2023-04-27T03:06:19.551Z,2.40
2023-04-27T03:12:22.777Z,2.72
2023-04-27T03:18:25.820Z,2.20
2023-04-27T03:24:29.489Z,2.42
2023-04-27T03:27:31.246Z,2.08
2023-04-27T03:30:32.809Z,2.28
2023-04-27T03:36:36.624Z,2.22
2023-04-27T03:39:38.332Z,2.53
2023-04-27T03:42:40.007Z,2.25
2023-04-27T03:45:41.732Z,1.83
2023-04-27T03:48:44.024Z,2.20
2023-04-27T03:51:45.646Z,1.88
2023-04-27T03:57:48.977Z,2.15
2023-04-27T04:00:50.679Z,2.20
2023-04-27T04:03:52.403Z,1.95
2023-04-27T04:06:54.077Z,2.38
2023-04-27T04:12:57.157Z,2.63
2023-04-27T04:16:06.403Z,3.03
2023-04-27T04:19:08.576Z,2.85
2023-04-27T04:22:10.284Z,3.20
2023-04-27T04:25:12.960Z,2.33
2023-04-27T04:28:14.517Z,2.92
2023-04-27T04:34:20.569Z,2.40
2023-04-27T04:37:22.984Z,2.13
2023-04-27T04:40:24.670Z,2.53
2023-04-27T04:43:26.827Z,2.05
2023-04-27T04:46:28.629Z,2.38
2023-04-27T04:49:30.433Z,2.13
2023-04-27T04:52:32.030Z,1.95
2023-04-27T04:55:33.798Z,1.73
2023-04-27T04:58:35.599Z,2.35
2023-04-27T05:01:37.193Z,1.95
2023-04-27T05:04:38.980Z,1.95
2023-04-27T05:07:40.631Z,1.88
2023-04-27T05:10:42.209Z,2.05
2023-04-27T05:13:43.838Z,1.67
2023-04-27T05:16:46.382Z,1.90
2023-04-27T05:19:47.954Z,2.40
2023-04-27T05:22:49.515Z,1.90
2023-04-27T05:28:52.929Z,3.00
2023-04-27T05:31:54.657Z,3.10
2023-04-27T05:34:56.311Z,2.95
2023-04-27T05:37:58.146Z,2.80
2023-04-27T05:40:59.954Z,2.35
2023-04-27T05:44:01.509Z,1.90
2023-04-27T05:47:03.177Z,2.28
2023-04-27T05:50:05.121Z,2.40
2023-04-27T05:53:07.086Z,2.72
2023-04-27T05:56:11.707Z,2.17
2023-04-27T05:59:13.695Z,2.58
2023-04-27T06:02:15.517Z,4.38
2023-04-27T06:05:17.645Z,2.80
2023-04-27T06:08:19.254Z,2.55
2023-04-27T06:11:21.224Z,2.50
2023-04-27T06:14:22.793Z,2.60
2023-04-27T06:17:24.375Z,2.08
2023-04-27T06:20:26.369Z,2.10
2023-04-27T06:23:28.013Z,2.55
2023-04-27T06:26:29.666Z,2.90
2023-04-27T06:29:31.612Z,2.45
2023-04-27T06:32:33.257Z,2.17
2023-04-27T06:35:34.886Z,2.67
2023-04-27T06:38:36.436Z,2.38
2023-04-27T06:41:37.996Z,1.95
2023-04-27T06:44:39.730Z,2.00
2023-04-27T06:47:41.390Z,1.67
2023-04-27T06:50:43.931Z,2.15
2023-04-27T06:53:45.657Z,2.33
2023-04-27T06:56:47.286Z,1.90
2023-04-27T06:59:48.873Z,2.40
2023-04-27T07:02:51.480Z,2.00
2023-04-27T07:05:53.262Z,2.33
2023-04-27T07:08:55.260Z,1.50
2023-04-27T07:11:58.391Z,1.50
2023-04-27T07:14:59.984Z,1.98
2023-04-27T07:18:01.692Z,1.85
2023-04-27T07:21:03.447Z,1.77
2023-04-27T07:24:05.254Z,2.15
2023-04-27T07:27:06.933Z,2.65
2023-04-27T07:30:09.419Z,1.85
2023-04-27T07:33:11.223Z,1.75
2023-04-27T07:36:12.856Z,2.15
2023-04-27T07:39:15.186Z,1.40
2023-04-27T07:42:16.988Z,1.75
2023-04-27T07:45:18.608Z,2.17
2023-04-27T07:48:20.235Z,1.60
2023-04-27T07:51:21.943Z,1.48
2023-04-27T07:54:23.532Z,1.70
2023-04-27T07:57:25.200Z,1.98
2023-04-27T08:00:27.229Z,1.75
2023-04-27T08:03:29.041Z,1.85
2023-04-27T08:06:31.210Z,1.38
2023-04-27T08:09:33.027Z,1.50
2023-04-27T08:12:35.130Z,0.90
2023-04-27T08:15:37.391Z,1.55
2023-04-27T08:18:38.979Z,1.13
2023-04-27T08:21:40.793Z,1.17
2023-04-27T08:24:42.353Z,1.42
2023-04-27T08:27:43.999Z,1.48
2023-04-27T08:30:45.930Z,1.60
2023-04-27T08:33:47.578Z,1.50
2023-04-27T08:36:49.153Z,1.65
2023-04-27T08:39:52.227Z,1.42
2023-04-27T08:42:56.281Z,1.38
2023-04-27T08:45:57.890Z,1.55
2023-04-27T08:48:59.494Z,1.23
2023-04-27T08:52:01.971Z,1.80
2023-04-27T08:55:04.911Z,1.60
2023-04-27T08:58:06.488Z,1.50
2023-04-27T09:01:08.372Z,1.60
2023-04-27T09:04:11.881Z,1.75
2023-04-27T09:07:17.797Z,1.67
2023-04-27T09:10:19.550Z,1.23
2023-04-27T09:13:21.687Z,1.48
2023-04-27T09:16:25.240Z,1.17
2023-04-27T09:19:31.904Z,1.58
2023-04-27T09:22:42.867Z,1.45
2023-04-27T09:25:44.462Z,1.63
2023-04-27T09:28:48.962Z,1.33
2023-04-27T09:31:50.620Z,1.80
2023-04-27T09:34:52.238Z,1.40
2023-04-27T09:37:54.974Z,1.83
2023-04-27T09:40:57.142Z,1.75
2023-04-27T09:43:59.992Z,1.40
2023-04-27T09:47:02.509Z,1.42
2023-04-27T09:50:06.247Z,1.67
2023-04-27T09:53:12.936Z,1.73
2023-04-27T09:56:42.398Z,1.42
2023-04-27T09:59:53.623Z,1.23
2023-04-27T10:03:09.594Z,1.63
2023-04-27T10:06:48.633Z,0.93
2023-04-27T10:09:53.593Z,1.02
2023-04-27T10:13:01.721Z,0.82
2023-04-27T10:16:16.875Z,1.35
2023-04-27T10:19:20.556Z,1.48
2023-04-27T10:22:23.862Z,0.73
2023-04-27T10:25:28.676Z,1.10
2023-04-27T10:28:38.594Z,2.03
2023-04-27T10:31:48.285Z,1.25
2023-04-27T10:35:04.113Z,1.17
2023-04-27T10:38:08.567Z,1.05
2023-04-27T10:41:14.804Z,0.70
2023-04-27T10:44:28.765Z,0.93
2023-04-27T10:47:42.684Z,1.30
2023-04-27T10:50:44.944Z,1.33
2023-04-27T10:53:52.554Z,1.38
2023-04-27T10:56:55.295Z,1.20
2023-04-27T10:59:56.873Z,1.17
2023-04-27T11:03:12.786Z,1.17
2023-04-27T11:06:14.489Z,1.08
2023-04-27T11:09:27.362Z,1.00
2023-04-27T11:15:30.486Z,1.08
2023-04-27T11:18:33.672Z,0.80
2023-04-27T11:21:35.531Z,1.52
2023-04-27T11:24:37.349Z,1.00
2023-04-27T11:27:41.000Z,1.77
2023-04-27T11:30:42.551Z,0.63
2023-04-27T11:33:49.265Z,1.10
2023-04-27T11:37:17.474Z,1.60
2023-04-27T11:40:20.401Z,1.02
2023-04-27T11:43:26.193Z,1.30
2023-04-27T11:46:27.809Z,1.02
2023-04-27T11:49:29.473Z,1.10
2023-04-27T11:52:36.212Z,1.63
2023-04-27T11:55:38.590Z,1.38
2023-04-27T11:58:40.432Z,1.20
2023-04-27T12:01:42.037Z,1.90
2023-04-27T12:04:43.876Z,1.45
2023-04-27T12:07:45.563Z,0.93
2023-04-27T12:10:47.642Z,1.35
2023-04-27T12:13:49.169Z,1.20
2023-04-27T12:16:51.325Z,2.42
2023-04-27T12:19:53.004Z,1.42
2023-04-27T12:22:54.838Z,1.38
2023-04-27T12:25:56.603Z,1.55
2023-04-27T12:28:58.219Z,1.10
2023-04-27T12:32:00.264Z,1.10
2023-04-27T12:35:01.907Z,1.17
2023-04-27T12:38:03.589Z,1.10
2023-04-27T12:41:05.188Z,1.35
2023-04-27T12:44:06.746Z,1.02
2023-04-27T12:47:08.305Z,1.00
2023-04-27T12:50:10.363Z,1.75
2023-04-27T12:53:12.254Z,1.45
2023-04-27T12:56:13.926Z,1.48
2023-04-27T12:59:17.070Z,1.50
2023-04-27T13:02:18.794Z,1.67
2023-04-27T13:05:22.082Z,1.33
2023-04-27T13:08:23.678Z,0.93
2023-04-27T13:11:25.986Z,1.27
2023-04-27T13:14:28.656Z,0.98
2023-04-27T13:17:30.681Z,1.48
2023-04-27T13:20:32.864Z,1.08
2023-04-27T13:23:34.934Z,2.53
2023-04-27T13:26:36.577Z,1.30
2023-04-27T13:29:38.364Z,1.23
2023-04-27T13:32:39.987Z,0.93
2023-04-27T13:35:42.216Z,1.55
2023-04-27T13:38:43.827Z,1.33
2023-04-27T13:41:46.108Z,0.93
2023-04-27T13:44:47.627Z,1.13
2023-04-27T13:47:49.191Z,0.93
2023-04-27T13:50:51.281Z,1.48
2023-04-27T13:53:52.814Z,1.35
2023-04-27T13:56:54.418Z,1.50
2023-04-27T13:59:56.044Z,0.98
2023-04-27T14:02:57.765Z,1.42
2023-04-27T14:05:59.456Z,1.63
2023-04-27T14:09:01.182Z,2.13
2023-04-27T14:12:02.875Z,0.80
2023-04-27T14:15:04.927Z,1.23
2023-04-27T14:18:08.050Z,1.30
2023-04-27T14:21:09.765Z,1.65
2023-04-27T14:24:11.312Z,1.65
2023-04-27T14:27:12.877Z,0.80
2023-04-27T14:30:15.499Z,1.25
2023-04-27T14:33:17.207Z,0.80
2023-04-27T14:36:18.816Z,1.52
2023-04-27T14:39:21.507Z,1.40
2023-04-27T14:42:23.222Z,1.23
2023-04-27T14:45:29.006Z,1.33
2023-04-27T14:48:35.380Z,0.95
2023-04-27T14:51:36.960Z,1.15
2023-04-27T14:54:38.825Z,1.33
2023-04-27T14:57:40.554Z,1.23
2023-04-27T15:00:42.222Z,1.60
2023-04-27T15:03:44.033Z,1.23
2023-04-27T15:06:45.936Z,1.05
2023-04-27T15:09:47.490Z,1.25
2023-04-27T15:12:49.070Z,1.48
2023-04-27T15:15:58.597Z,0.88
2023-04-27T15:19:00.476Z,2.67
2023-04-27T15:22:02.036Z,1.30
2023-04-27T15:25:03.832Z,0.90
2023-04-27T15:28:05.555Z,1.20
2023-04-27T15:31:07.330Z,1.23
2023-04-27T15:34:08.952Z,0.98
2023-04-27T15:37:10.674Z,1.02
2023-04-27T15:40:12.460Z,1.10
2023-04-27T15:43:15.060Z,1.23
2023-04-27T15:46:18.208Z,1.17
2023-04-27T15:49:20.107Z,0.88
2023-04-27T15:52:21.664Z,1.05
2023-04-27T15:55:23.392Z,0.80
2023-04-27T15:58:24.973Z,1.05
2023-04-27T16:01:26.778Z,1.02
2023-04-27T16:04:28.545Z,1.27
2023-04-27T16:07:32.036Z,2.47
2023-04-27T16:10:33.604Z,1.42
2023-04-27T16:13:35.182Z,1.00
2023-04-27T16:16:36.960Z,1.20
2023-04-27T16:19:38.575Z,0.90
2023-04-27T16:22:40.244Z,0.80
2023-04-27T16:25:41.969Z,0.77
2023-04-27T16:28:43.613Z,0.95
2023-04-27T16:31:45.509Z,0.65
2023-04-27T16:34:47.578Z,0.90
2023-04-27T16:37:50.295Z,0.50
2023-04-27T16:40:52.712Z,0.70
2023-04-27T16:43:54.296Z,1.23
2023-04-27T16:46:55.854Z,0.90
2023-04-27T16:49:58.119Z,0.93
2023-04-27T16:53:11.662Z,1.13
2023-04-27T16:56:14.229Z,0.77
2023-04-27T16:59:17.187Z,1.92
2023-04-27T17:02:25.144Z,1.40
2023-04-27T17:05:27.378Z,0.80
2023-04-27T17:08:29.104Z,1.42
2023-04-27T17:11:30.716Z,1.13
2023-04-27T17:14:32.320Z,1.17
2023-04-27T17:17:34.853Z,0.93
2023-04-27T17:20:36.763Z,1.13
2023-04-27T17:23:41.342Z,1.58
2023-04-27T17:26:42.893Z,1.10
2023-04-27T17:29:44.527Z,1.30
2023-04-27T17:32:46.377Z,0.93
2023-04-27T17:35:48.250Z,0.82
2023-04-27T17:38:49.892Z,1.23
2023-04-27T17:41:51.713Z,0.93
2023-04-27T17:44:53.338Z,1.15
2023-04-27T17:47:55.047Z,0.68
2023-04-27T17:50:56.593Z,0.98
2023-04-27T17:53:58.172Z,1.33
2023-04-27T17:56:59.763Z,0.98
2023-04-27T18:00:01.652Z,0.90
2023-04-27T18:03:03.361Z,1.90
2023-04-27T18:06:05.250Z,1.45
2023-04-27T18:09:06.888Z,1.50
2023-04-27T18:12:11.134Z,1.15
2023-04-27T18:15:12.939Z,1.77
2023-04-27T18:18:19.056Z,1.48
2023-04-27T18:21:20.819Z,1.50
2023-04-27T18:24:22.506Z,1.88
2023-04-27T18:27:24.109Z,2.22
2023-04-27T18:30:25.877Z,1.95
2023-04-27T18:33:27.636Z,1.73
2023-04-27T18:36:29.281Z,3.35
2023-04-27T18:39:30.940Z,2.00
2023-04-27T18:42:32.537Z,4.07
2023-04-27T18:45:34.402Z,3.85
2023-04-27T18:48:36.125Z,2.35
2023-04-27T18:51:37.830Z,2.25
2023-04-27T18:54:39.486Z,2.88
2023-04-27T18:57:41.098Z,2.92
2023-04-27T19:00:42.738Z,2.65
2023-04-27T19:03:45.018Z,3.70
2023-04-27T19:06:47.587Z,3.97
2023-04-27T19:09:49.357Z,4.35
2023-04-27T19:12:51.330Z,5.20
2023-04-27T19:15:52.922Z,3.78
2023-04-27T19:18:54.511Z,4.63
2023-04-27T19:21:58.294Z,5.35
2023-04-27T19:25:00.650Z,5.78
2023-04-27T19:28:02.270Z,5.75
2023-04-27T19:31:03.902Z,5.00
2023-04-27T19:34:05.620Z,5.25
2023-04-27T19:37:07.187Z,5.40
2023-04-27T19:40:09.517Z,5.90
2023-04-27T19:43:11.982Z,6.30
2023-04-27T19:46:13.657Z,5.93
2023-04-27T19:49:15.961Z,6.88
2023-04-27T19:52:17.527Z,7.03
2023-04-27T19:55:19.112Z,6.60
2023-04-27T19:58:20.676Z,8.98
2023-04-27T20:01:22.273Z,9.80
2023-04-27T20:04:24.164Z,9.05
2023-04-27T20:07:26.177Z,11.05
2023-04-27T20:10:27.777Z,12.23
2023-04-27T20:13:29.338Z,9.32
2023-04-27T20:16:31.367Z,11.80
2023-04-27T20:19:33.982Z,14.77
2023-04-27T20:22:35.831Z,15.10
2023-04-27T20:25:37.502Z,14.65
2023-04-27T20:28:39.099Z,14.68
2023-04-27T20:31:41.189Z,13.38
2023-04-27T20:34:43.216Z,12.55
2023-04-27T20:37:44.799Z,11.73
2023-04-27T20:40:47.167Z,11.25
2023-04-27T20:43:48.764Z,12.73
2023-04-27T20:46:50.394Z,12.95
2023-04-27T20:49:53.463Z,12.07
2023-04-27T20:52:55.042Z,11.38
2023-04-27T20:55:57.112Z,13.07
2023-04-27T20:58:59.302Z,9.88
2023-04-27T21:02:00.886Z,12.82
2023-04-27T21:05:02.526Z,11.73
2023-04-27T21:08:04.221Z,13.63
2023-04-27T21:11:06.548Z,11.68
2023-04-27T21:14:08.284Z,10.38
2023-04-27T21:17:10.302Z,11.35
2023-04-27T21:20:12.439Z,11.45
2023-04-27T21:23:14.883Z,11.05
2023-04-27T21:26:16.515Z,11.82
2023-04-27T21:29:18.177Z,10.50
2023-04-27T21:32:19.785Z,10.35
2023-04-27T21:35:21.525Z,10.95
2023-04-27T21:38:23.104Z,9.82
2023-04-27T21:41:24.798Z,10.15
2023-04-27T21:44:26.344Z,11.05
2023-04-27T21:47:28.151Z,10.32
2023-04-27T21:50:29.796Z,11.85
2023-04-27T21:53:31.523Z,9.90
2023-04-27T21:56:33.062Z,9.02
2023-04-27T22:02:36.192Z,10.63
2023-04-27T22:05:37.790Z,11.70
2023-04-27T22:08:39.390Z,11.10
2023-04-27T22:11:41.267Z,11.50
2023-04-27T22:14:42.923Z,13.48
2023-04-27T22:17:44.958Z,13.82
2023-04-27T22:20:47.346Z,13.52
2023-04-27T22:23:49.002Z,13.13
2023-04-27T22:26:50.845Z,11.45
2023-04-27T22:29:52.486Z,12.82
2023-04-27T22:32:54.170Z,12.15
2023-04-27T22:35:55.901Z,10.85
2023-04-27T22:38:57.635Z,11.25
2023-04-27T22:41:59.229Z,10.30
2023-04-27T22:45:01.054Z,11.20
2023-04-27T22:48:04.106Z,11.82
2023-04-27T22:51:09.993Z,11.93
2023-04-27T22:54:11.675Z,10.68
2023-04-27T22:57:13.263Z,10.88
2023-04-27T23:00:15.274Z,10.13
2023-04-27T23:03:17.090Z,10.38
2023-04-27T23:06:18.871Z,8.80
2023-04-27T23:09:21.145Z,9.38
2023-04-27T23:12:22.879Z,8.32
2023-04-27T23:15:24.931Z,8.60
2023-04-27T23:18:26.487Z,11.10
2023-04-27T23:21:28.387Z,10.48
2023-04-27T23:24:30.001Z,8.98
2023-04-27T23:27:31.710Z,7.70
2023-04-27T23:30:34.288Z,9.18
2023-04-27T23:33:35.953Z,8.15
2023-04-27T23:36:37.516Z,8.02
2023-04-27T23:39:39.143Z,8.05
2023-04-27T23:42:40.755Z,7.43
2023-04-27T23:45:42.392Z,7.60
2023-04-27T23:48:44.039Z,8.90
2023-04-27T23:51:45.788Z,8.07
2023-04-27T23:54:47.345Z,7.72
